sensor_id;sensor_type;location;lat;lon;timestamp;temperature;humidity
65637;DHT22;52327;42.622;23.316;2022-10-16T00:01:33;7.32;81.02
65637;DHT22;52327;42.622;23.316;2022-10-16T00:04:01;7.28;81.12
65637;DHT22;52327;42.622;23.316;2022-10-16T00:06:28;7.30;81.02
65637;DHT22;52327;42.622;23.316;2022-10-16T00:08:54;7.21;81.32
65637;DHT22;52327;42.622;23.316;2022-10-16T00:11:22;7.30;80.80
65637;DHT22;52327;42.622;23.316;2022-10-16T00:13:50;7.34;80.88
65637;DHT22;52327;42.622;23.316;2022-10-16T00:16:17;7.31;80.96
65637;DHT22;52327;42.622;23.316;2022-10-16T00:18:43;7.18;81.02
65637;DHT22;52327;42.622;23.316;2022-10-16T00:21:11;7.14;81.26
65637;DHT22;52327;42.622;23.316;2022-10-16T00:23:37;7.14;81.75
65637;DHT22;52327;42.622;23.316;2022-10-16T00:26:12;7.14;81.60
65637;DHT22;52327;42.622;23.316;2022-10-16T00:28:38;7.11;81.91
65637;DHT22;52327;42.622;23.316;2022-10-16T00:31:08;7.07;81.99
65637;DHT22;52327;42.622;23.316;2022-10-16T00:33:35;7.04;82.17
65637;DHT22;52327;42.622;23.316;2022-10-16T00:36:02;7.08;81.79
65637;DHT22;52327;42.622;23.316;2022-10-16T00:38:28;6.96;82.18
65637;DHT22;52327;42.622;23.316;2022-10-16T00:40:54;6.87;82.43
65637;DHT22;52327;42.622;23.316;2022-10-16T00:43:45;6.86;82.39
65637;DHT22;52327;42.622;23.316;2022-10-16T00:48:48;7.03;82.30
65637;DHT22;52327;42.622;23.316;2022-10-16T00:51:14;7.07;82.21
65637;DHT22;52327;42.622;23.316;2022-10-16T00:53:40;7.00;82.12
65637;DHT22;52327;42.622;23.316;2022-10-16T00:56:06;7.00;82.21
65637;DHT22;52327;42.622;23.316;2022-10-16T00:58:31;6.99;82.36
65637;DHT22;52327;42.622;23.316;2022-10-16T01:00:57;6.96;82.24
65637;DHT22;52327;42.622;23.316;2022-10-16T01:03:34;6.96;82.11
65637;DHT22;52327;42.622;23.316;2022-10-16T01:06:14;6.92;82.34
65637;DHT22;52327;42.622;23.316;2022-10-16T01:09:03;6.94;82.34
65637;DHT22;52327;42.622;23.316;2022-10-16T01:12:10;6.93;82.42
65637;DHT22;52327;42.622;23.316;2022-10-16T01:25:14;6.97;82.35
65637;DHT22;52327;42.622;23.316;2022-10-16T01:27:45;7.08;82.00
65637;DHT22;52327;42.622;23.316;2022-10-16T01:30:23;7.08;81.67
65637;DHT22;52327;42.622;23.316;2022-10-16T01:33:04;7.03;81.83
65637;DHT22;52327;42.622;23.316;2022-10-16T01:35:40;6.93;82.18
65637;DHT22;52327;42.622;23.316;2022-10-16T01:40:58;6.77;82.84
65637;DHT22;52327;42.622;23.316;2022-10-16T01:44:16;6.82;82.82
65637;DHT22;52327;42.622;23.316;2022-10-16T01:46:18;6.87;82.54
65637;DHT22;52327;42.622;23.316;2022-10-16T01:48:44;6.89;82.47
65637;DHT22;52327;42.622;23.316;2022-10-16T01:51:12;6.89;82.41
65637;DHT22;52327;42.622;23.316;2022-10-16T01:53:39;6.92;82.60
65637;DHT22;52327;42.622;23.316;2022-10-16T01:56:09;6.93;82.73
65637;DHT22;52327;42.622;23.316;2022-10-16T01:58:38;6.92;83.05
65637;DHT22;52327;42.622;23.316;2022-10-16T02:01:07;6.92;82.92
65637;DHT22;52327;42.622;23.316;2022-10-16T02:03:36;6.97;83.07
65637;DHT22;52327;42.622;23.316;2022-10-16T02:06:03;7.07;83.10
65637;DHT22;52327;42.622;23.316;2022-10-16T02:08:29;7.01;83.07
65637;DHT22;52327;42.622;23.316;2022-10-16T02:10:56;7.01;83.10
65637;DHT22;52327;42.622;23.316;2022-10-16T02:13:30;6.99;83.44
65637;DHT22;52327;42.622;23.316;2022-10-16T02:15:57;6.93;83.40
65637;DHT22;52327;42.622;23.316;2022-10-16T02:18:23;6.89;83.49
65637;DHT22;52327;42.622;23.316;2022-10-16T02:26:07;7.05;82.32
65637;DHT22;52327;42.622;23.316;2022-10-16T02:28:42;7.18;81.88
65637;DHT22;52327;42.622;23.316;2022-10-16T02:31:11;7.10;82.10
65637;DHT22;52327;42.622;23.316;2022-10-16T02:33:40;7.15;81.75
65637;DHT22;52327;42.622;23.316;2022-10-16T02:36:09;7.17;81.28
65637;DHT22;52327;42.622;23.316;2022-10-16T02:38:36;7.14;81.53
65637;DHT22;52327;42.622;23.316;2022-10-16T02:41:02;7.13;81.45
65637;DHT22;52327;42.622;23.316;2022-10-16T02:43:28;7.03;81.88
65637;DHT22;52327;42.622;23.316;2022-10-16T02:45:54;7.01;81.06
65637;DHT22;52327;42.622;23.316;2022-10-16T02:48:22;7.01;81.14
65637;DHT22;52327;42.622;23.316;2022-10-16T02:50:47;6.87;81.66
65637;DHT22;52327;42.622;23.316;2022-10-16T02:53:12;6.79;82.21
65637;DHT22;52327;42.622;23.316;2022-10-16T02:55:38;6.69;82.96
65637;DHT22;52327;42.622;23.316;2022-10-16T02:58:03;6.63;83.14
65637;DHT22;52327;42.622;23.316;2022-10-16T03:00:29;6.75;82.75
65637;DHT22;52327;42.622;23.316;2022-10-16T03:02:54;6.73;82.39
65637;DHT22;52327;42.622;23.316;2022-10-16T03:05:19;6.75;82.17
65637;DHT22;52327;42.622;23.316;2022-10-16T03:07:45;6.72;82.19
65637;DHT22;52327;42.622;23.316;2022-10-16T03:10:10;6.63;82.59
65637;DHT22;52327;42.622;23.316;2022-10-16T03:12:36;6.66;82.62
65637;DHT22;52327;42.622;23.316;2022-10-16T03:15:01;6.62;83.79
65637;DHT22;52327;42.622;23.316;2022-10-16T03:17:27;6.59;84.92
65637;DHT22;52327;42.622;23.316;2022-10-16T03:19:52;6.50;85.20
65637;DHT22;52327;42.622;23.316;2022-10-16T03:22:18;6.56;83.51
65637;DHT22;52327;42.622;23.316;2022-10-16T03:24:43;6.53;83.00
65637;DHT22;52327;42.622;23.316;2022-10-16T03:27:09;6.66;81.72
65637;DHT22;52327;42.622;23.316;2022-10-16T03:29:34;6.72;81.03
65637;DHT22;52327;42.622;23.316;2022-10-16T03:32:00;6.62;81.74
65637;DHT22;52327;42.622;23.316;2022-10-16T03:34:25;6.56;82.06
65637;DHT22;52327;42.622;23.316;2022-10-16T03:36:51;6.68;80.61
65637;DHT22;52327;42.622;23.316;2022-10-16T03:39:17;6.63;80.88
65637;DHT22;52327;42.622;23.316;2022-10-16T03:41:43;6.55;81.24
65637;DHT22;52327;42.622;23.316;2022-10-16T03:44:08;6.38;82.06
65637;DHT22;52327;42.622;23.316;2022-10-16T03:46:34;6.28;82.81
65637;DHT22;52327;42.622;23.316;2022-10-16T03:48:59;6.20;82.83
65637;DHT22;52327;42.622;23.316;2022-10-16T03:51:24;6.12;82.84
65637;DHT22;52327;42.622;23.316;2022-10-16T03:53:50;6.12;82.71
65637;DHT22;52327;42.622;23.316;2022-10-16T03:56:15;6.12;82.40
65637;DHT22;52327;42.622;23.316;2022-10-16T03:58:41;6.17;82.76
65637;DHT22;52327;42.622;23.316;2022-10-16T04:01:06;6.17;82.85
65637;DHT22;52327;42.622;23.316;2022-10-16T04:03:32;6.07;84.06
65637;DHT22;52327;42.622;23.316;2022-10-16T04:05:57;5.90;84.46
65637;DHT22;52327;42.622;23.316;2022-10-16T04:08:23;5.81;84.87
65637;DHT22;52327;42.622;23.316;2022-10-16T04:10:48;5.91;84.56
65637;DHT22;52327;42.622;23.316;2022-10-16T04:13:14;5.93;84.56
65637;DHT22;52327;42.622;23.316;2022-10-16T04:15:39;5.95;84.21
65637;DHT22;52327;42.622;23.316;2022-10-16T04:18:05;5.98;84.88
65637;DHT22;52327;42.622;23.316;2022-10-16T04:20:31;5.97;84.75
65637;DHT22;52327;42.622;23.316;2022-10-16T04:22:56;6.08;84.89
65637;DHT22;52327;42.622;23.316;2022-10-16T04:25:22;6.07;85.23
65637;DHT22;52327;42.622;23.316;2022-10-16T04:27:47;6.02;85.49
65637;DHT22;52327;42.622;23.316;2022-10-16T04:30:13;6.08;85.42
65637;DHT22;52327;42.622;23.316;2022-10-16T04:32:40;6.11;85.11
65637;DHT22;52327;42.622;23.316;2022-10-16T04:35:06;6.05;84.91
65637;DHT22;52327;42.622;23.316;2022-10-16T04:37:32;6.04;85.34
65637;DHT22;52327;42.622;23.316;2022-10-16T04:39:57;6.12;85.43
65637;DHT22;52327;42.622;23.316;2022-10-16T04:42:23;6.26;84.62
65637;DHT22;52327;42.622;23.316;2022-10-16T04:44:50;6.36;83.92
65637;DHT22;52327;42.622;23.316;2022-10-16T04:47:16;6.36;83.67
65637;DHT22;52327;42.622;23.316;2022-10-16T04:49:41;6.32;84.03
65637;DHT22;52327;42.622;23.316;2022-10-16T04:52:07;6.32;84.06
65637;DHT22;52327;42.622;23.316;2022-10-16T04:54:34;6.36;84.04
65637;DHT22;52327;42.622;23.316;2022-10-16T04:56:59;6.31;83.97
65637;DHT22;52327;42.622;23.316;2022-10-16T04:59:25;6.26;84.41
65637;DHT22;52327;42.622;23.316;2022-10-16T05:01:50;6.25;84.69
65637;DHT22;52327;42.622;23.316;2022-10-16T05:04:15;6.32;84.73
65637;DHT22;52327;42.622;23.316;2022-10-16T05:06:41;6.42;84.61
65637;DHT22;52327;42.622;23.316;2022-10-16T05:09:07;6.48;84.43
65637;DHT22;52327;42.622;23.316;2022-10-16T05:11:33;6.55;84.39
65637;DHT22;52327;42.622;23.316;2022-10-16T05:13:59;6.68;84.19
65637;DHT22;52327;42.622;23.316;2022-10-16T05:16:24;6.82;83.75
65637;DHT22;52327;42.622;23.316;2022-10-16T05:18:51;6.96;83.05
65637;DHT22;52327;42.622;23.316;2022-10-16T05:21:16;7.01;82.91
65637;DHT22;52327;42.622;23.316;2022-10-16T05:23:42;7.11;83.12
65637;DHT22;52327;42.622;23.316;2022-10-16T05:26:07;7.23;82.85
65637;DHT22;52327;42.622;23.316;2022-10-16T05:28:33;7.32;82.67
65637;DHT22;52327;42.622;23.316;2022-10-16T05:30:59;7.35;82.64
65637;DHT22;52327;42.622;23.316;2022-10-16T05:33:25;7.50;82.26
65637;DHT22;52327;42.622;23.316;2022-10-16T05:35:51;7.61;82.10
65637;DHT22;52327;42.622;23.316;2022-10-16T05:38:18;7.58;81.96
65637;DHT22;52327;42.622;23.316;2022-10-16T05:40:43;7.68;82.01
65637;DHT22;52327;42.622;23.316;2022-10-16T05:43:09;7.76;81.88
65637;DHT22;52327;42.622;23.316;2022-10-16T05:45:34;7.85;81.92
65637;DHT22;52327;42.622;23.316;2022-10-16T05:48:00;7.97;81.84
65637;DHT22;52327;42.622;23.316;2022-10-16T05:50:26;8.02;81.83
65637;DHT22;52327;42.622;23.316;2022-10-16T05:52:52;8.09;81.62
65637;DHT22;52327;42.622;23.316;2022-10-16T05:55:17;8.06;81.51
65637;DHT22;52327;42.622;23.316;2022-10-16T05:57:43;8.17;81.35
65637;DHT22;52327;42.622;23.316;2022-10-16T06:00:09;8.22;81.27
65637;DHT22;52327;42.622;23.316;2022-10-16T06:02:35;8.27;81.28
65637;DHT22;52327;42.622;23.316;2022-10-16T06:05:00;8.38;81.33
65637;DHT22;52327;42.622;23.316;2022-10-16T06:07:25;8.44;81.19
65637;DHT22;52327;42.622;23.316;2022-10-16T06:09:52;8.48;81.33
65637;DHT22;52327;42.622;23.316;2022-10-16T06:12:18;8.57;80.96
65637;DHT22;52327;42.622;23.316;2022-10-16T06:14:44;8.58;80.64
65637;DHT22;52327;42.622;23.316;2022-10-16T06:17:10;8.64;80.41
65637;DHT22;52327;42.622;23.316;2022-10-16T06:19:35;8.72;80.86
65637;DHT22;52327;42.622;23.316;2022-10-16T06:22:00;8.79;80.41
65637;DHT22;52327;42.622;23.316;2022-10-16T06:24:27;8.88;79.92
65637;DHT22;52327;42.622;23.316;2022-10-16T06:26:53;8.91;79.72
65637;DHT22;52327;42.622;23.316;2022-10-16T06:29:18;8.92;79.36
65637;DHT22;52327;42.622;23.316;2022-10-16T06:31:44;9.14;79.15
65637;DHT22;52327;42.622;23.316;2022-10-16T06:34:10;9.16;78.78
65637;DHT22;52327;42.622;23.316;2022-10-16T06:36:37;9.23;78.64
65637;DHT22;52327;42.622;23.316;2022-10-16T06:39:03;9.30;78.70
65637;DHT22;52327;42.622;23.316;2022-10-16T06:41:28;9.42;78.57
65637;DHT22;52327;42.622;23.316;2022-10-16T06:43:54;9.57;77.95
65637;DHT22;52327;42.622;23.316;2022-10-16T06:46:22;9.69;77.28
65637;DHT22;52327;42.622;23.316;2022-10-16T06:48:48;9.76;77.05
65637;DHT22;52327;42.622;23.316;2022-10-16T06:51:19;9.84;76.73
65637;DHT22;52327;42.622;23.316;2022-10-16T06:53:46;9.89;76.67
65637;DHT22;52327;42.622;23.316;2022-10-16T06:56:25;9.86;76.62
65637;DHT22;52327;42.622;23.316;2022-10-16T06:58:51;9.95;76.33
65637;DHT22;52327;42.622;23.316;2022-10-16T07:04:12;9.86;75.51
65637;DHT22;52327;42.622;23.316;2022-10-16T07:06:38;9.69;76.82
65637;DHT22;52327;42.622;23.316;2022-10-16T07:09:05;9.71;76.56
65637;DHT22;52327;42.622;23.316;2022-10-16T07:11:32;9.81;76.47
65637;DHT22;52327;42.622;23.316;2022-10-16T07:13:58;9.97;76.27
65637;DHT22;52327;42.622;23.316;2022-10-16T07:16:26;10.01;75.95
65637;DHT22;52327;42.622;23.316;2022-10-16T07:18:56;9.94;75.79
65637;DHT22;52327;42.622;23.316;2022-10-16T07:21:29;10.01;75.74
65637;DHT22;52327;42.622;23.316;2022-10-16T07:23:59;10.03;75.73
65637;DHT22;52327;42.622;23.316;2022-10-16T07:26:27;10.11;75.51
65637;DHT22;52327;42.622;23.316;2022-10-16T07:28:53;10.18;74.54
65637;DHT22;52327;42.622;23.316;2022-10-16T07:31:21;10.31;74.36
65637;DHT22;52327;42.622;23.316;2022-10-16T07:33:47;10.49;73.55
65637;DHT22;52327;42.622;23.316;2022-10-16T07:36:15;10.44;73.44
65637;DHT22;52327;42.622;23.316;2022-10-16T07:38:40;10.63;73.22
65637;DHT22;52327;42.622;23.316;2022-10-16T07:41:10;10.52;73.56
65637;DHT22;52327;42.622;23.316;2022-10-16T07:43:36;10.55;72.92
65637;DHT22;52327;42.622;23.316;2022-10-16T07:46:02;10.55;73.80
65637;DHT22;52327;42.622;23.316;2022-10-16T07:48:29;10.79;73.27
65637;DHT22;52327;42.622;23.316;2022-10-16T07:51:02;10.85;71.62
65637;DHT22;52327;42.622;23.316;2022-10-16T07:53:28;10.91;72.09
65637;DHT22;52327;42.622;23.316;2022-10-16T07:56:01;11.06;71.20
65637;DHT22;52327;42.622;23.316;2022-10-16T07:58:28;11.19;70.61
65637;DHT22;52327;42.622;23.316;2022-10-16T08:00:54;11.20;70.60
65637;DHT22;52327;42.622;23.316;2022-10-16T08:03:19;11.27;69.95
65637;DHT22;52327;42.622;23.316;2022-10-16T08:05:45;11.28;70.27
65637;DHT22;52327;42.622;23.316;2022-10-16T08:08:14;11.27;69.19
65637;DHT22;52327;42.622;23.316;2022-10-16T08:10:40;11.34;69.35
65637;DHT22;52327;42.622;23.316;2022-10-16T08:13:05;11.31;68.99
65637;DHT22;52327;42.622;23.316;2022-10-16T08:15:31;11.22;69.07
65637;DHT22;52327;42.622;23.316;2022-10-16T08:18:01;11.37;68.76
65637;DHT22;52327;42.622;23.316;2022-10-16T08:20:28;11.54;68.17
65637;DHT22;52327;42.622;23.316;2022-10-16T08:22:54;11.65;66.99
65637;DHT22;52327;42.622;23.316;2022-10-16T08:25:21;11.71;66.99
65637;DHT22;52327;42.622;23.316;2022-10-16T08:27:47;11.75;66.81
65637;DHT22;52327;42.622;23.316;2022-10-16T08:30:12;11.74;67.40
65637;DHT22;52327;42.622;23.316;2022-10-16T08:32:37;11.79;67.48
65637;DHT22;52327;42.622;23.316;2022-10-16T08:35:03;11.82;67.16
65637;DHT22;52327;42.622;23.316;2022-10-16T08:37:32;11.92;67.44
65637;DHT22;52327;42.622;23.316;2022-10-16T08:39:58;12.15;65.93
65637;DHT22;52327;42.622;23.316;2022-10-16T08:42:33;12.19;65.53
65637;DHT22;52327;42.622;23.316;2022-10-16T08:50:25;12.56;62.97
65637;DHT22;52327;42.622;23.316;2022-10-16T08:52:53;12.47;60.95
65637;DHT22;52327;42.622;23.316;2022-10-16T08:57:58;12.63;58.77
65637;DHT22;52327;42.622;23.316;2022-10-16T09:00:24;12.67;58.04
65637;DHT22;52327;42.622;23.316;2022-10-16T09:06:10;12.45;56.14
65637;DHT22;52327;42.622;23.316;2022-10-16T09:14:46;12.60;57.92
65637;DHT22;52327;42.622;23.316;2022-10-16T09:17:35;12.47;58.90
65637;DHT22;52327;42.622;23.316;2022-10-16T09:22:48;12.88;57.91
65637;DHT22;52327;42.622;23.316;2022-10-16T09:25:20;13.04;58.69
65637;DHT22;52327;42.622;23.316;2022-10-16T09:27:47;13.18;57.62
65637;DHT22;52327;42.622;23.316;2022-10-16T09:30:17;13.38;56.87
65637;DHT22;52327;42.622;23.316;2022-10-16T09:32:44;13.31;54.99
65637;DHT22;52327;42.622;23.316;2022-10-16T09:35:16;13.44;54.34
65637;DHT22;52327;42.622;23.316;2022-10-16T09:37:45;13.49;53.86
65637;DHT22;52327;42.622;23.316;2022-10-16T09:40:13;13.63;53.57
65637;DHT22;52327;42.622;23.316;2022-10-16T09:42:48;13.49;54.21
65637;DHT22;52327;42.622;23.316;2022-10-16T09:45:23;13.45;54.32
65637;DHT22;52327;42.622;23.316;2022-10-16T09:47:49;13.49;55.04
65637;DHT22;52327;42.622;23.316;2022-10-16T09:50:26;13.61;54.64
65637;DHT22;52327;42.622;23.316;2022-10-16T09:53:12;13.49;54.58
65637;DHT22;52327;42.622;23.316;2022-10-16T09:55:50;13.58;54.20
65637;DHT22;52327;42.622;23.316;2022-10-16T09:58:16;13.61;53.35
65637;DHT22;52327;42.622;23.316;2022-10-16T10:00:49;13.55;54.38
65637;DHT22;52327;42.622;23.316;2022-10-16T10:03:39;13.80;53.14
65637;DHT22;52327;42.622;23.316;2022-10-16T10:06:56;13.69;53.35
65637;DHT22;52327;42.622;23.316;2022-10-16T10:09:26;13.87;52.77
65637;DHT22;52327;42.622;23.316;2022-10-16T10:11:56;13.93;52.36
65637;DHT22;52327;42.622;23.316;2022-10-16T10:16:48;13.90;52.84
65637;DHT22;52327;42.622;23.316;2022-10-16T10:19:22;13.98;52.55
65637;DHT22;52327;42.622;23.316;2022-10-16T10:21:48;14.12;52.85
65637;DHT22;52327;42.622;23.316;2022-10-16T10:24:16;14.06;52.61
65637;DHT22;52327;42.622;23.316;2022-10-16T10:37:54;14.54;50.81
65637;DHT22;52327;42.622;23.316;2022-10-16T10:45:48;14.51;50.60
65637;DHT22;52327;42.622;23.316;2022-10-16T10:54:16;14.75;50.04
65637;DHT22;52327;42.622;23.316;2022-10-16T10:57:00;14.80;50.09
65637;DHT22;52327;42.622;23.316;2022-10-16T11:02:14;14.91;50.46
65637;DHT22;52327;42.622;23.316;2022-10-16T11:07:36;14.87;48.42
65637;DHT22;52327;42.622;23.316;2022-10-16T11:10:12;15.02;47.88
65637;DHT22;52327;42.622;23.316;2022-10-16T11:12:42;15.15;47.11
65637;DHT22;52327;42.622;23.316;2022-10-16T11:15:27;15.23;45.59
65637;DHT22;52327;42.622;23.316;2022-10-16T11:17:59;15.38;45.81
65637;DHT22;52327;42.622;23.316;2022-10-16T11:20:31;15.47;45.50
65637;DHT22;52327;42.622;23.316;2022-10-16T11:23:18;15.49;45.75
65637;DHT22;52327;42.622;23.316;2022-10-16T11:25:46;15.47;44.92
65637;DHT22;52327;42.622;23.316;2022-10-16T11:28:38;15.54;45.33
65637;DHT22;52327;42.622;23.316;2022-10-16T11:31:10;15.76;45.44
65637;DHT22;52327;42.622;23.316;2022-10-16T11:36:41;16.05;43.81
65637;DHT22;52327;42.622;23.316;2022-10-16T11:41:52;16.08;42.50
65637;DHT22;52327;42.622;23.316;2022-10-16T11:47:23;16.01;42.33
65637;DHT22;52327;42.622;23.316;2022-10-16T11:49:55;16.20;42.42
65637;DHT22;52327;42.622;23.316;2022-10-16T11:52:41;16.41;41.71
65637;DHT22;52327;42.622;23.316;2022-10-16T11:55:15;16.68;41.88
65637;DHT22;52327;42.622;23.316;2022-10-16T11:57:49;16.69;42.05
65637;DHT22;52327;42.622;23.316;2022-10-16T12:00:25;16.69;42.95
65637;DHT22;52327;42.622;23.316;2022-10-16T12:09:26;17.36;39.50
65637;DHT22;52327;42.622;23.316;2022-10-16T12:11:52;17.61;37.69
65637;DHT22;52327;42.622;23.316;2022-10-16T12:14:42;17.82;37.64
65637;DHT22;52327;42.622;23.316;2022-10-16T12:17:27;17.31;36.63
65637;DHT22;52327;42.622;23.316;2022-10-16T12:25:53;19.65;34.46
65637;DHT22;52327;42.622;23.316;2022-10-16T12:28:21;23.31;29.29
65637;DHT22;52327;42.622;23.316;2022-10-16T12:31:14;26.83;24.13
65637;DHT22;52327;42.622;23.316;2022-10-16T12:33:41;28.26;21.19
65637;DHT22;52327;42.622;23.316;2022-10-16T12:36:33;29.47;20.12
65637;DHT22;52327;42.622;23.316;2022-10-16T12:38:59;30.29;18.96
65637;DHT22;52327;42.622;23.316;2022-10-16T12:41:30;30.72;18.83
65637;DHT22;52327;42.622;23.316;2022-10-16T12:43:56;31.03;18.65
65637;DHT22;52327;42.622;23.316;2022-10-16T12:46:42;28.74;20.53
65637;DHT22;52327;42.622;23.316;2022-10-16T12:51:41;23.64;27.08
65637;DHT22;52327;42.622;23.316;2022-10-16T12:54:17;22.61;28.44
65637;DHT22;52327;42.622;23.316;2022-10-16T12:56:49;21.79;30.89
65637;DHT22;52327;42.622;23.316;2022-10-16T12:59:24;21.47;31.44
65637;DHT22;52327;42.622;23.316;2022-10-16T13:13:13;27.83;22.95
65637;DHT22;52327;42.622;23.316;2022-10-16T13:26:55;24.40;28.83
65637;DHT22;52327;42.622;23.316;2022-10-16T13:29:22;23.27;28.82
65637;DHT22;52327;42.622;23.316;2022-10-16T13:31:48;22.68;30.71
65637;DHT22;52327;42.622;23.316;2022-10-16T13:34:20;22.04;33.50
65637;DHT22;52327;42.622;23.316;2022-10-16T13:36:49;21.47;35.20
65637;DHT22;52327;42.622;23.316;2022-10-16T13:39:28;21.08;36.17
65637;DHT22;52327;42.622;23.316;2022-10-16T13:42:11;23.85;31.17
65637;DHT22;52327;42.622;23.316;2022-10-16T13:44:43;26.93;27.51
65637;DHT22;52327;42.622;23.316;2022-10-16T13:49:41;29.26;25.03
65637;DHT22;52327;42.622;23.316;2022-10-16T13:52:17;29.76;23.40
65637;DHT22;52327;42.622;23.316;2022-10-16T13:54:43;29.47;23.65
65637;DHT22;52327;42.622;23.316;2022-10-16T13:57:13;29.67;23.87
65637;DHT22;52327;42.622;23.316;2022-10-16T13:59:42;29.67;23.15
65637;DHT22;52327;42.622;23.316;2022-10-16T14:04:46;24.35;29.68
65637;DHT22;52327;42.622;23.316;2022-10-16T14:07:22;22.01;33.14
65637;DHT22;52327;42.622;23.316;2022-10-16T14:09:50;20.47;35.65
65637;DHT22;52327;42.622;23.316;2022-10-16T14:12:16;19.49;37.14
65637;DHT22;52327;42.622;23.316;2022-10-16T14:14:44;18.84;39.44
65637;DHT22;52327;42.622;23.316;2022-10-16T14:17:15;17.92;41.34
65637;DHT22;52327;42.622;23.316;2022-10-16T14:19:48;17.27;42.30
65637;DHT22;52327;42.622;23.316;2022-10-16T14:22:38;16.75;44.08
65637;DHT22;52327;42.622;23.316;2022-10-16T14:30:55;15.91;45.95
65637;DHT22;52327;42.622;23.316;2022-10-16T14:33:31;15.62;46.58
65637;DHT22;52327;42.622;23.316;2022-10-16T14:36:05;15.32;47.10
65637;DHT22;52327;42.622;23.316;2022-10-16T14:38:36;15.09;47.68
65637;DHT22;52327;42.622;23.316;2022-10-16T14:41:03;14.65;47.61
65637;DHT22;52327;42.622;23.316;2022-10-16T14:43:35;14.40;48.88
65637;DHT22;52327;42.622;23.316;2022-10-16T14:46:03;14.14;50.61
65637;DHT22;52327;42.622;23.316;2022-10-16T14:48:29;14.14;51.19
65637;DHT22;52327;42.622;23.316;2022-10-16T14:50:55;14.13;51.28
65637;DHT22;52327;42.622;23.316;2022-10-16T14:53:21;14.17;51.96
65637;DHT22;52327;42.622;23.316;2022-10-16T14:55:46;13.86;52.76
65637;DHT22;52327;42.622;23.316;2022-10-16T14:58:15;13.57;54.08
65637;DHT22;52327;42.622;23.316;2022-10-16T15:00:41;13.34;54.60
65637;DHT22;52327;42.622;23.316;2022-10-16T15:03:07;13.42;53.97
65637;DHT22;52327;42.622;23.316;2022-10-16T15:05:32;13.34;54.34
65637;DHT22;52327;42.622;23.316;2022-10-16T15:07:58;13.18;54.81
65637;DHT22;52327;42.622;23.316;2022-10-16T15:10:25;13.03;54.56
65637;DHT22;52327;42.622;23.316;2022-10-16T15:12:52;12.91;55.65
65637;DHT22;52327;42.622;23.316;2022-10-16T15:17:53;12.84;54.98
65637;DHT22;52327;42.622;23.316;2022-10-16T15:20:21;12.93;55.01
65637;DHT22;52327;42.622;23.316;2022-10-16T15:22:46;12.75;55.52
65637;DHT22;52327;42.622;23.316;2022-10-16T15:25:31;12.63;56.53
65637;DHT22;52327;42.622;23.316;2022-10-16T15:28:00;12.59;56.66
65637;DHT22;52327;42.622;23.316;2022-10-16T15:30:27;12.24;57.11
65637;DHT22;52327;42.622;23.316;2022-10-16T15:32:52;12.24;56.91
65637;DHT22;52327;42.622;23.316;2022-10-16T15:35:18;12.33;55.94
65637;DHT22;52327;42.622;23.316;2022-10-16T15:37:43;12.37;56.06
65637;DHT22;52327;42.622;23.316;2022-10-16T15:40:10;12.39;56.53
65637;DHT22;52327;42.622;23.316;2022-10-16T15:42:36;12.22;56.94
65637;DHT22;52327;42.622;23.316;2022-10-16T15:45:01;12.04;57.43
65637;DHT22;52327;42.622;23.316;2022-10-16T15:47:28;11.92;58.12
65637;DHT22;52327;42.622;23.316;2022-10-16T15:49:53;11.84;58.16
65637;DHT22;52327;42.622;23.316;2022-10-16T15:52:19;11.88;57.45
65637;DHT22;52327;42.622;23.316;2022-10-16T15:54:47;11.79;58.06
65637;DHT22;52327;42.622;23.316;2022-10-16T15:57:13;11.78;58.20
65637;DHT22;52327;42.622;23.316;2022-10-16T15:59:38;11.70;57.80
65637;DHT22;52327;42.622;23.316;2022-10-16T16:02:04;11.60;58.27
65637;DHT22;52327;42.622;23.316;2022-10-16T16:04:30;11.55;58.16
65637;DHT22;52327;42.622;23.316;2022-10-16T16:06:56;11.50;57.75
65637;DHT22;52327;42.622;23.316;2022-10-16T16:09:21;11.41;57.93
65637;DHT22;52327;42.622;23.316;2022-10-16T16:11:47;11.36;57.78
65637;DHT22;52327;42.622;23.316;2022-10-16T16:14:13;11.28;57.98
65637;DHT22;52327;42.622;23.316;2022-10-16T16:16:39;11.17;57.85
65637;DHT22;52327;42.622;23.316;2022-10-16T16:19:05;11.12;58.57
65637;DHT22;52327;42.622;23.316;2022-10-16T16:21:31;11.10;58.70
65637;DHT22;52327;42.622;23.316;2022-10-16T16:23:57;11.07;58.48
65637;DHT22;52327;42.622;23.316;2022-10-16T16:26:29;11.02;58.70
65637;DHT22;52327;42.622;23.316;2022-10-16T16:28:59;11.02;58.57
65637;DHT22;52327;42.622;23.316;2022-10-16T16:31:26;11.06;58.50
65637;DHT22;52327;42.622;23.316;2022-10-16T16:33:52;11.03;58.51
65637;DHT22;52327;42.622;23.316;2022-10-16T16:36:18;10.96;58.76
65637;DHT22;52327;42.622;23.316;2022-10-16T16:38:45;10.92;59.04
65637;DHT22;52327;42.622;23.316;2022-10-16T16:41:15;10.85;59.55
65637;DHT22;52327;42.622;23.316;2022-10-16T16:43:41;10.88;59.64
65637;DHT22;52327;42.622;23.316;2022-10-16T16:46:07;10.76;59.85
65637;DHT22;52327;42.622;23.316;2022-10-16T16:48:33;10.73;59.75
65637;DHT22;52327;42.622;23.316;2022-10-16T16:51:06;10.71;59.79
65637;DHT22;52327;42.622;23.316;2022-10-16T16:53:35;10.73;60.12
65637;DHT22;52327;42.622;23.316;2022-10-16T16:56:05;10.77;59.67
65637;DHT22;52327;42.622;23.316;2022-10-16T16:58:31;10.71;59.48
65637;DHT22;52327;42.622;23.316;2022-10-16T17:00:56;10.73;59.62
65637;DHT22;52327;42.622;23.316;2022-10-16T17:03:26;10.68;59.48
65637;DHT22;52327;42.622;23.316;2022-10-16T17:06:19;10.56;59.75
65637;DHT22;52327;42.622;23.316;2022-10-16T17:08:45;10.56;59.99
65637;DHT22;52327;42.622;23.316;2022-10-16T17:11:16;10.58;59.72
65637;DHT22;52327;42.622;23.316;2022-10-16T17:13:42;10.56;59.75
65637;DHT22;52327;42.622;23.316;2022-10-16T17:16:08;10.51;60.06
65637;DHT22;52327;42.622;23.316;2022-10-16T17:18:34;10.44;60.35
65637;DHT22;52327;42.622;23.316;2022-10-16T17:21:12;10.45;60.42
65637;DHT22;52327;42.622;23.316;2022-10-16T17:23:44;10.55;60.10
65637;DHT22;52327;42.622;23.316;2022-10-16T17:26:15;10.55;59.89
65637;DHT22;52327;42.622;23.316;2022-10-16T17:28:41;10.53;59.77
65637;DHT22;52327;42.622;23.316;2022-10-16T17:31:09;10.48;60.34
65637;DHT22;52327;42.622;23.316;2022-10-16T17:33:35;10.44;60.51
65637;DHT22;52327;42.622;23.316;2022-10-16T17:36:01;10.37;60.62
65637;DHT22;52327;42.622;23.316;2022-10-16T17:38:26;10.28;60.39
65637;DHT22;52327;42.622;23.316;2022-10-16T17:40:54;10.32;59.86
65637;DHT22;52327;42.622;23.316;2022-10-16T17:43:19;10.38;59.62
65637;DHT22;52327;42.622;23.316;2022-10-16T17:45:45;10.32;59.90
65637;DHT22;52327;42.622;23.316;2022-10-16T17:48:12;10.37;59.98